Time;durP1;ratioP1;P1;durP2;ratioP2;P2;SDS_P1;SDS_P2;PMS_P1;PMS_P2;Temp;Humidity;BMP_temperature;BMP_pressure;BME280_temperature;BME280_humidity;BME280_pressure;Samples;Min_cycle;Max_cycle;Signal;HPM_P1;HPM_P2
2021/12/22 00:01:48;;;;;;;24.40;12.87;;;-0.60;90.00;;;;;;5013008;28;20025;-72
2021/12/22 00:04:13;;;;;;;24.37;12.43;;;-0.60;90.00;;;;;;5012813;28;20420;-72
2021/12/22 00:06:39;;;;;;;32.53;13.13;;;-0.60;90.00;;;;;;5012933;28;20116;-72
2021/12/22 00:09:05;;;;;;;28.77;13.47;;;-0.60;90.10;;;;;;5012614;28;20121;-72
2021/12/22 00:11:32;;;;;;;26.27;12.53;;;-0.70;90.10;;;;;;5012704;28;20033;-73
2021/12/22 00:13:57;;;;;;;24.37;13.50;;;-0.70;90.10;;;;;;5014023;28;20324;-72
2021/12/22 00:16:23;;;;;;;27.93;12.63;;;-0.70;90.10;;;;;;4996565;28;20363;-72
2021/12/22 00:18:49;;;;;;;28.40;12.50;;;-0.70;90.20;;;;;;5012495;28;20073;-73
2021/12/22 00:21:14;;;;;;;29.50;13.70;;;-0.70;90.20;;;;;;4996286;28;20037;-72
2021/12/22 00:23:40;;;;;;;31.77;13.53;;;-0.80;90.30;;;;;;4996315;28;20034;-73
2021/12/22 00:26:06;;;;;;;24.03;13.30;;;-0.70;90.30;;;;;;5012832;28;20425;-73
2021/12/22 00:28:33;;;;;;;27.37;13.00;;;-0.80;90.30;;;;;;5013554;28;20038;-73
2021/12/22 00:30:59;;;;;;;25.57;12.23;;;-0.80;90.30;;;;;;4996312;28;20075;-73
2021/12/22 00:33:27;;;;;;;27.43;13.80;;;-0.90;90.40;;;;;;4995881;28;20277;-76
2021/12/22 00:35:53;;;;;;;27.13;13.03;;;-0.90;90.50;;;;;;5013623;28;20631;-76
2021/12/22 00:38:21;;;;;;;25.70;12.83;;;-0.90;90.40;;;;;;4995776;28;20292;-76
2021/12/22 00:40:48;;;;;;;27.13;13.50;;;-0.90;90.50;;;;;;4995963;28;20083;-76
2021/12/22 00:43:15;;;;;;;27.23;13.67;;;-0.90;90.50;;;;;;4996146;28;20058;-76
2021/12/22 00:45:41;;;;;;;28.67;14.10;;;-0.90;90.50;;;;;;4995847;28;20277;-76
2021/12/22 00:48:09;;;;;;;24.00;12.90;;;-1.00;90.50;;;;;;4995658;28;20289;-76
2021/12/22 00:50:36;;;;;;;28.80;14.13;;;-1.00;90.60;;;;;;4996168;28;20284;-76
2021/12/22 00:53:02;;;;;;;29.67;13.37;;;-1.00;90.60;;;;;;5013297;28;20284;-76
2021/12/22 00:55:28;;;;;;;27.73;13.23;;;-1.00;90.60;;;;;;5013300;28;20633;-76
2021/12/22 00:57:55;;;;;;;27.63;13.10;;;-1.00;90.60;;;;;;5012275;28;20285;-76
2021/12/22 01:00:24;;;;;;;27.00;13.27;;;-1.00;90.70;;;;;;5013336;28;20358;-76
2021/12/22 01:02:50;;;;;;;30.63;13.27;;;-1.10;90.70;;;;;;5029356;28;20795;-76
2021/12/22 01:05:18;;;;;;;27.70;13.10;;;-1.10;90.70;;;;;;5032788;28;20284;-76
2021/12/22 01:07:46;;;;;;;28.50;13.57;;;-1.10;90.70;;;;;;5014665;28;20026;-76
2021/12/22 01:10:13;;;;;;;28.37;13.37;;;-1.10;90.80;;;;;;5015050;28;20291;-76
2021/12/22 01:12:39;;;;;;;26.67;12.50;;;-1.10;90.90;;;;;;5015288;28;20290;-75
2021/12/22 01:15:07;;;;;;;27.43;13.60;;;-1.10;90.90;;;;;;5032727;28;20288;-76
2021/12/22 01:17:41;;;;;;;29.87;14.17;;;-1.20;90.90;;;;;;5015417;28;20284;-76
2021/12/22 01:20:17;;;;;;;31.90;13.65;;;-1.20;91.00;;;;;;5032791;28;20291;-76
2021/12/22 01:25:12;;;;;;;29.20;14.00;;;-1.20;91.10;;;;;;5015354;28;20323;-77
2021/12/22 01:27:41;;;;;;;24.90;12.23;;;-1.20;91.10;;;;;;5015246;28;20529;-76
2021/12/22 01:30:20;;;;;;;27.40;12.90;;;-1.20;91.20;;;;;;5032505;28;20720;-76
2021/12/22 01:32:49;;;;;;;25.57;12.87;;;-1.20;91.20;;;;;;5032740;28;20280;-76
2021/12/22 01:35:17;;;;;;;24.53;12.37;;;-1.30;91.20;;;;;;5014826;28;20640;-76
2021/12/22 01:37:43;;;;;;;28.50;13.53;;;-1.20;91.30;;;;;;5032475;28;20276;-76
2021/12/22 01:40:10;;;;;;;28.20;13.90;;;-1.30;91.30;;;;;;5032278;28;20802;-76
2021/12/22 01:42:38;;;;;;;29.70;13.67;;;-1.30;91.30;;;;;;5018069;28;20025;-76
2021/12/22 01:45:30;;;;;;;31.33;14.83;;;-1.30;91.30;;;;;;5036095;28;20276;-76
2021/12/22 01:50:50;;;;;;;28.30;13.77;;;-1.30;91.30;;;;;;5036278;28;20357;-76
2021/12/22 01:53:21;;;;;;;29.73;13.40;;;-1.30;91.40;;;;;;5035783;28;20351;-76
2021/12/22 01:56:05;;;;;;;30.33;13.80;;;-1.40;91.30;;;;;;5018106;28;20334;-76
2021/12/22 01:58:36;;;;;;;29.95;13.82;;;-1.40;91.50;;;;;;5018167;28;20363;-76
2021/12/22 02:01:04;;;;;;;30.30;13.63;;;-1.40;91.40;;;;;;5017935;28;20025;-76
2021/12/22 02:03:30;;;;;;;30.90;12.53;;;-1.40;91.40;;;;;;5035618;28;20349;-76
2021/12/22 02:05:56;;;;;;;28.40;15.07;;;-1.40;91.40;;;;;;5018092;28;20288;-76
2021/12/22 02:08:21;;;;;;;30.73;13.33;;;-1.40;91.50;;;;;;5001480;28;20030;-76
2021/12/22 02:10:48;;;;;;;33.13;13.97;;;-1.40;91.50;;;;;;5017830;28;20025;-76
2021/12/22 02:13:19;;;;;;;31.53;14.20;;;-1.50;91.50;;;;;;5017642;28;20395;-73
2021/12/22 02:15:47;;;;;;;29.67;13.97;;;-1.50;91.50;;;;;;5002064;28;20787;-73
2021/12/22 02:18:17;;;;;;;34.27;14.80;;;-1.50;91.60;;;;;;5017580;28;20276;-73
2021/12/22 02:20:44;;;;;;;30.83;13.83;;;-1.60;91.60;;;;;;5035375;28;20312;-72
2021/12/22 02:23:10;;;;;;;30.63;13.73;;;-1.50;91.60;;;;;;5035347;28;20284;-73
2021/12/22 02:25:44;;;;;;;31.80;14.37;;;-1.60;91.60;;;;;;5017631;28;20324;-73
2021/12/22 02:28:16;;;;;;;28.40;14.05;;;-1.50;91.70;;;;;;4986929;28;20295;-73
2021/12/22 02:30:42;;;;;;;32.50;15.00;;;-1.60;91.60;;;;;;5035071;28;20496;-73
2021/12/22 02:33:22;;;;;;;30.87;13.63;;;-1.60;91.70;;;;;;5035198;28;20344;-73
2021/12/22 02:36:08;;;;;;;31.87;14.67;;;-1.60;91.70;;;;;;5002788;28;20115;-73
2021/12/22 02:38:35;;;;;;;29.10;12.33;;;-1.60;91.70;;;;;;5034998;28;20366;-73
2021/12/22 02:41:01;;;;;;;32.97;14.83;;;-1.60;91.70;;;;;;5017191;28;20287;-73
2021/12/22 02:43:32;;;;;;;27.73;12.83;;;-1.70;91.70;;;;;;5017364;28;20338;-73
2021/12/22 02:45:58;;;;;;;26.60;12.43;;;-1.70;91.70;;;;;;5002213;28;20283;-73
2021/12/22 02:48:28;;;;;;;30.23;14.17;;;-1.60;91.80;;;;;;5016995;28;20346;-73
2021/12/22 02:50:56;;;;;;;30.17;13.70;;;-1.70;91.80;;;;;;5000608;28;20280;-73
2021/12/22 02:53:27;;;;;;;29.33;13.63;;;-1.70;91.90;;;;;;5034658;28;20329;-73
2021/12/22 02:56:12;;;;;;;28.07;13.60;;;-1.70;91.90;;;;;;5017898;28;20756;-73
2021/12/22 02:58:47;;;;;;;27.00;13.33;;;-1.70;91.90;;;;;;5034600;28;20284;-73
2021/12/22 03:04:02;;;;;;;29.57;13.83;;;-1.80;91.90;;;;;;5034774;28;20787;-73
2021/12/22 03:08:53;;;;;;;28.23;13.63;;;-1.80;91.90;;;;;;5016967;28;20374;-72
2021/12/22 03:11:19;;;;;;;29.10;13.07;;;-1.80;92.00;;;;;;5000374;28;20369;-72
2021/12/22 03:13:46;;;;;;;27.23;13.13;;;-1.80;92.00;;;;;;5034376;28;20025;-72
2021/12/22 03:16:11;;;;;;;34.73;13.67;;;-1.80;92.00;;;;;;5016640;28;20067;-73
2021/12/22 03:18:38;;;;;;;31.00;12.80;;;-1.90;92.10;;;;;;5016580;28;20304;-76
2021/12/22 03:21:19;;;;;;;26.63;12.37;;;-1.90;92.10;;;;;;5034404;28;20029;-76
2021/12/22 03:23:45;;;;;;;28.43;14.00;;;-1.90;92.10;;;;;;5034147;28;20287;-76
2021/12/22 03:26:14;;;;;;;29.50;12.80;;;-1.90;92.10;;;;;;5034197;28;20276;-77
2021/12/22 03:28:40;;;;;;;33.47;15.13;;;-1.90;92.10;;;;;;4984776;28;20299;-77
2021/12/22 03:31:06;;;;;;;27.93;13.40;;;-1.90;92.10;;;;;;5016416;28;20280;-76
2021/12/22 03:33:31;;;;;;;32.60;13.77;;;-2.00;92.10;;;;;;5034439;28;20276;-76
2021/12/22 03:35:57;;;;;;;30.67;12.87;;;-2.00;92.10;;;;;;5017291;28;20306;-77
2021/12/22 03:38:23;;;;;;;27.73;12.50;;;-2.00;92.40;;;;;;5018306;28;20044;-75
2021/12/22 03:40:49;;;;;;;26.50;13.03;;;-2.00;92.20;;;;;;5037494;28;20094;-75
2021/12/22 03:43:14;;;;;;;29.57;13.33;;;-2.00;92.20;;;;;;5019709;28;20056;-76
2021/12/22 03:45:40;;;;;;;29.77;13.77;;;-2.00;92.20;;;;;;5038631;28;20037;-75
2021/12/22 03:48:05;;;;;;;31.27;13.67;;;-2.10;92.20;;;;;;5021333;28;20060;-75
2021/12/22 03:50:31;;;;;;;30.43;13.63;;;-2.10;92.20;;;;;;5036432;28;20033;-76
2021/12/22 03:52:57;;;;;;;26.83;12.87;;;-2.10;92.20;;;;;;5017980;28;20067;-76
2021/12/22 03:55:22;;;;;;;31.97;15.27;;;-2.10;92.20;;;;;;5035247;28;20478;-76
2021/12/22 03:57:50;;;;;;;31.20;14.30;;;-2.20;92.10;;;;;;5017136;28;20375;-75
2021/12/22 04:00:16;;;;;;;28.73;12.00;;;-2.20;92.20;;;;;;5035133;28;20151;-76
2021/12/22 04:02:42;;;;;;;30.03;11.90;;;-2.20;92.20;;;;;;5016385;28;20280;-76
2021/12/22 04:05:08;;;;;;;31.07;13.07;;;-2.20;92.20;;;;;;5015611;28;20284;-76
2021/12/22 04:07:34;;;;;;;33.10;14.07;;;-2.30;92.30;;;;;;5033598;28;20031;-76
2021/12/22 04:10:08;;;;;;;33.33;13.67;;;-2.30;92.30;;;;;;5015772;28;20383;-77
2021/12/22 04:12:34;;;;;;;34.23;14.10;;;-2.30;92.30;;;;;;5000488;28;20068;-76
2021/12/22 04:14:59;;;;;;;29.83;12.93;;;-2.30;92.30;;;;;;5015719;28;20284;-77
2021/12/22 04:17:25;;;;;;;32.43;14.90;;;-2.30;92.40;;;;;;5015687;28;20037;-77
2021/12/22 04:19:51;;;;;;;32.10;14.50;;;-2.30;92.30;;;;;;5033442;28;20041;-77
2021/12/22 04:22:16;;;;;;;34.47;14.70;;;-2.40;92.40;;;;;;5033388;28;20108;-77
2021/12/22 04:24:42;;;;;;;31.90;13.50;;;-2.30;92.40;;;;;;5015601;28;20496;-77
2021/12/22 04:27:08;;;;;;;34.03;14.23;;;-2.30;92.40;;;;;;5015736;28;20042;-77
2021/12/22 04:29:33;;;;;;;30.67;13.30;;;-2.40;92.40;;;;;;5015300;28;20124;-77
2021/12/22 04:31:59;;;;;;;34.93;13.17;;;-2.30;92.30;;;;;;5015549;28;20034;-77
2021/12/22 04:34:25;;;;;;;30.60;13.33;;;-2.40;92.30;;;;;;5015302;28;20054;-77
2021/12/22 04:36:50;;;;;;;31.47;13.07;;;-2.40;92.30;;;;;;5015536;28;20033;-77
2021/12/22 04:39:16;;;;;;;26.70;12.10;;;-2.40;92.40;;;;;;4982808;28;20029;-77
2021/12/22 04:41:41;;;;;;;33.57;14.53;;;-2.40;92.40;;;;;;5033151;28;20044;-77
2021/12/22 04:44:07;;;;;;;27.33;12.73;;;-2.40;92.40;;;;;;5015290;28;20385;-76
2021/12/22 04:46:33;;;;;;;34.83;13.30;;;-2.50;92.40;;;;;;5015398;28;20079;-77
2021/12/22 04:48:59;;;;;;;31.90;12.60;;;-2.40;92.50;;;;;;5033020;28;20033;-77
2021/12/22 04:51:30;;;;;;;32.63;13.73;;;-2.50;92.50;;;;;;5033030;28;20033;-77
2021/12/22 04:54:04;;;;;;;31.53;12.47;;;-2.50;92.50;;;;;;5015168;28;20032;-77
2021/12/22 04:56:31;;;;;;;30.73;12.77;;;-2.50;92.50;;;;;;5032744;28;20787;-77
2021/12/22 04:58:56;;;;;;;28.40;11.53;;;-2.50;92.60;;;;;;5024452;28;20298;-77
2021/12/22 05:01:22;;;;;;;34.67;11.60;;;-2.50;92.60;;;;;;5030505;28;20379;-78
2021/12/22 05:03:48;;;;;;;29.73;13.47;;;-2.50;92.70;;;;;;4998679;28;20092;-78
2021/12/22 05:06:13;;;;;;;31.17;12.07;;;-2.50;92.70;;;;;;5014743;28;20485;-77
2021/12/22 05:08:39;;;;;;;29.73;12.30;;;-2.50;92.60;;;;;;5015072;28;20045;-77
2021/12/22 05:11:05;;;;;;;31.10;12.47;;;-2.50;92.60;;;;;;5032845;28;20057;-78
2021/12/22 05:13:33;;;;;;;33.37;13.33;;;-2.50;92.70;;;;;;5015089;28;20067;-77
2021/12/22 05:15:58;;;;;;;26.23;11.73;;;-2.50;92.70;;;;;;5016170;28;20056;-77
2021/12/22 05:18:37;;;;;;;27.40;12.20;;;-2.60;93.00;;;;;;5036621;28;20772;-77
2021/12/22 05:21:02;;;;;;;27.97;12.07;;;-2.60;92.70;;;;;;5004406;28;20539;-78
2021/12/22 05:23:28;;;;;;;30.80;11.33;;;-2.60;92.70;;;;;;5036440;28;20286;-78
2021/12/22 05:25:54;;;;;;;28.07;12.20;;;-2.60;92.70;;;;;;5002475;28;20474;-77
2021/12/22 05:28:19;;;;;;;27.33;12.47;;;-2.60;92.70;;;;;;5002306;28;20042;-77
2021/12/22 05:30:47;;;;;;;28.03;12.23;;;-2.50;92.70;;;;;;5036172;28;20355;-77
2021/12/22 05:33:13;;;;;;;29.83;12.00;;;-2.60;92.70;;;;;;5002823;28;20018;-78
2021/12/22 05:35:40;;;;;;;25.57;10.93;;;-2.60;92.80;;;;;;5018258;28;20303;-78
2021/12/22 05:38:05;;;;;;;31.43;13.03;;;-2.50;92.80;;;;;;5018496;28;20280;-77
2021/12/22 05:40:31;;;;;;;30.20;12.10;;;-2.60;92.80;;;;;;5036044;28;20286;-77
2021/12/22 05:42:57;;;;;;;29.20;12.83;;;-2.60;92.80;;;;;;5018708;28;20030;-77
2021/12/22 05:45:24;;;;;;;29.47;12.70;;;-2.60;92.80;;;;;;5018318;28;20029;-77
2021/12/22 05:47:50;;;;;;;30.83;12.37;;;-2.60;92.80;;;;;;5014290;28;20288;-77
2021/12/22 05:50:16;;;;;;;26.47;11.63;;;-2.60;92.80;;;;;;5033428;28;20334;-77
2021/12/22 05:52:41;;;;;;;26.17;11.73;;;-2.50;92.90;;;;;;5016506;28;21539;-78
2021/12/22 05:55:07;;;;;;;23.57;10.70;;;-2.60;92.80;;;;;;4992302;28;20041;-77
2021/12/22 05:57:33;;;;;;;27.73;11.40;;;-2.60;92.80;;;;;;4982198;28;20033;-77
2021/12/22 05:59:59;;;;;;;30.13;11.03;;;-2.60;92.90;;;;;;5008202;28;20367;-77
2021/12/22 06:02:25;;;;;;;27.93;12.60;;;-2.60;92.90;;;;;;5013284;28;20026;-77
2021/12/22 06:04:51;;;;;;;32.53;13.80;;;-2.60;92.90;;;;;;5014927;28;21016;-74
2021/12/22 06:07:16;;;;;;;27.83;10.47;;;-2.60;92.90;;;;;;5015683;28;20575;-74
2021/12/22 06:09:42;;;;;;;29.07;12.03;;;-2.60;92.90;;;;;;5015814;28;20394;-74
2021/12/22 06:12:08;;;;;;;30.87;12.07;;;-2.60;92.90;;;;;;5014662;28;20033;-74
2021/12/22 06:14:33;;;;;;;30.43;12.60;;;-2.60;93.00;;;;;;4998452;28;20046;-74
2021/12/22 06:16:59;;;;;;;28.10;12.53;;;-2.70;92.90;;;;;;4998047;28;20107;-74
2021/12/22 06:19:25;;;;;;;29.33;12.63;;;-2.60;93.00;;;;;;4997942;28;20030;-74
2021/12/22 06:21:50;;;;;;;30.77;13.20;;;-2.70;93.00;;;;;;5014365;28;20036;-74
2021/12/22 06:24:16;;;;;;;32.57;12.70;;;-2.70;93.00;;;;;;5015537;28;20235;-74
2021/12/22 06:26:42;;;;;;;30.57;11.87;;;-2.70;93.00;;;;;;5013757;28;20474;-74
2021/12/22 06:29:07;;;;;;;33.23;12.73;;;-2.70;93.00;;;;;;4997736;28;20045;-74
2021/12/22 06:31:33;;;;;;;27.80;11.93;;;-2.70;93.00;;;;;;5015178;28;20062;-75
2021/12/22 06:33:59;;;;;;;31.03;12.97;;;-2.70;93.10;;;;;;5014108;28;20108;-74
2021/12/22 06:36:24;;;;;;;31.17;12.57;;;-2.70;93.10;;;;;;4997489;28;20065;-74
2021/12/22 06:38:50;;;;;;;32.67;12.17;;;-2.70;93.00;;;;;;5015261;28;20113;-74
2021/12/22 06:41:16;;;;;;;28.33;12.00;;;-2.70;93.00;;;;;;4997629;28;20030;-75
2021/12/22 06:43:41;;;;;;;31.27;12.87;;;-2.70;93.10;;;;;;5025362;28;20225;-73
2021/12/22 06:46:09;;;;;;;38.70;13.10;;;-2.70;93.10;;;;;;5007000;28;20053;-73
2021/12/22 06:48:35;;;;;;;32.80;11.93;;;-2.70;93.10;;;;;;5008664;28;20041;-73
2021/12/22 06:51:01;;;;;;;27.27;11.90;;;-2.70;93.10;;;;;;5030408;28;20284;-73
2021/12/22 06:53:26;;;;;;;30.67;11.27;;;-2.80;93.00;;;;;;5033342;28;20156;-73
2021/12/22 06:55:52;;;;;;;29.63;11.77;;;-2.80;93.10;;;;;;5015605;28;20033;-74
2021/12/22 06:58:18;;;;;;;33.13;12.67;;;-2.70;93.10;;;;;;5015576;28;20116;-73
2021/12/22 07:00:43;;;;;;;28.80;12.60;;;-2.70;93.10;;;;;;4997112;28;20034;-74
2021/12/22 07:03:09;;;;;;;27.63;11.33;;;-2.80;93.10;;;;;;5008058;28;20482;-74
2021/12/22 07:05:35;;;;;;;27.33;11.23;;;-2.80;93.10;;;;;;4989713;28;20387;-74
2021/12/22 07:08:00;;;;;;;32.13;12.13;;;-2.80;93.10;;;;;;5028525;28;20029;-74
2021/12/22 07:10:26;;;;;;;28.63;12.27;;;-2.90;93.10;;;;;;4999178;28;20058;-74
2021/12/22 07:12:52;;;;;;;36.20;12.87;;;-2.80;93.20;;;;;;5001804;28;20537;-74
2021/12/22 07:15:18;;;;;;;28.87;10.80;;;-2.80;93.50;;;;;;4997737;28;20052;-74
2021/12/22 07:17:47;;;;;;;29.93;11.77;;;-2.80;93.20;;;;;;5016150;28;20065;-75
2021/12/22 07:20:14;;;;;;;27.23;10.90;;;-2.80;93.20;;;;;;5033981;28;20295;-75
2021/12/22 07:22:40;;;;;;;31.53;12.50;;;-2.90;93.20;;;;;;4999686;28;20279;-75
2021/12/22 07:25:07;;;;;;;31.83;12.00;;;-2.90;93.30;;;;;;4999079;28;20827;-74
2021/12/22 07:27:33;;;;;;;32.43;12.83;;;-2.90;93.30;;;;;;4996688;28;20377;-75
2021/12/22 07:29:58;;;;;;;32.00;12.77;;;-2.90;93.30;;;;;;5002029;28;20737;-75
2021/12/22 07:32:24;;;;;;;29.07;12.17;;;-2.80;93.40;;;;;;5015121;28;20389;-74
2021/12/22 07:35:00;;;;;;;31.47;12.10;;;-2.90;93.30;;;;;;5033313;28;20052;-74
2021/12/22 07:37:41;;;;;;;32.97;11.43;;;-2.90;93.30;;;;;;5030619;28;20029;-74
2021/12/22 07:40:11;;;;;;;32.20;11.17;;;-2.90;93.30;;;;;;5024444;28;20286;-74
2021/12/22 07:42:37;;;;;;;30.93;12.27;;;-2.90;93.30;;;;;;5015914;28;20768;-74
2021/12/22 07:45:04;;;;;;;30.57;11.23;;;-2.90;93.40;;;;;;4999738;28;20283;-78
2021/12/22 07:47:30;;;;;;;31.37;12.33;;;-2.90;93.40;;;;;;4999740;28;20397;-78
2021/12/22 07:49:55;;;;;;;31.80;12.63;;;-2.90;93.40;;;;;;5033586;28;20288;-77
2021/12/22 07:52:22;;;;;;;30.60;11.47;;;-2.80;93.50;;;;;;5016001;28;20022;-77
2021/12/22 07:54:48;;;;;;;32.33;12.40;;;-2.90;93.50;;;;;;5033811;28;20076;-76
2021/12/22 07:57:13;;;;;;;31.77;12.90;;;-2.90;93.60;;;;;;5033540;28;20295;-78
2021/12/22 07:59:39;;;;;;;30.23;11.80;;;-2.90;93.60;;;;;;4999399;28;20045;-78
2021/12/22 08:02:05;;;;;;;31.60;12.13;;;-2.80;93.70;;;;;;5015823;28;20037;-78
2021/12/22 08:04:30;;;;;;;28.93;11.70;;;-2.80;93.70;;;;;;5015664;28;20033;-78
2021/12/22 08:06:56;;;;;;;33.43;12.53;;;-2.80;93.80;;;;;;4999131;28;20382;-78
2021/12/22 08:09:25;;;;;;;29.50;11.93;;;-2.80;93.80;;;;;;5015724;28;20083;-78
2021/12/22 08:11:56;;;;;;;29.90;11.67;;;-2.70;93.80;;;;;;4999734;28;20052;-78
2021/12/22 08:14:23;;;;;;;29.17;12.27;;;-2.70;93.90;;;;;;5015437;28;20276;-77
2021/12/22 08:16:50;;;;;;;35.17;12.30;;;-2.70;93.90;;;;;;5015582;28;20283;-77
2021/12/22 08:19:16;;;;;;;26.53;11.33;;;-2.60;94.00;;;;;;5026314;28;20288;-77
2021/12/22 08:21:44;;;;;;;28.70;12.33;;;-2.60;94.00;;;;;;5013393;28;20291;-77
2021/12/22 08:24:10;;;;;;;26.20;11.27;;;-2.50;94.10;;;;;;4995858;28;20033;-77
2021/12/22 08:26:36;;;;;;;29.57;12.17;;;-2.50;94.10;;;;;;5013246;28;20289;-78
2021/12/22 08:29:02;;;;;;;32.33;13.07;;;-2.40;94.40;;;;;;4980053;28;20320;-78
2021/12/22 08:31:28;;;;;;;31.83;11.30;;;-2.30;94.20;;;;;;4995766;28;20026;-77
2021/12/22 08:33:55;;;;;;;27.70;11.30;;;-2.30;94.20;;;;;;4979482;28;20281;-76
2021/12/22 08:39:08;;;;;;;27.57;11.33;;;-2.20;94.30;;;;;;5013326;28;20767;-77
2021/12/22 08:41:36;;;;;;;25.90;11.33;;;-2.10;94.30;;;;;;4995702;28;20289;-77
2021/12/22 08:44:09;;;;;;;30.03;11.77;;;-2.10;94.30;;;;;;4995644;28;20030;-77
2021/12/22 08:46:36;;;;;;;30.57;12.17;;;-2.00;94.40;;;;;;4995640;28;20280;-76
2021/12/22 08:49:04;;;;;;;32.40;12.77;;;-1.90;94.40;;;;;;5013106;28;20297;-75
2021/12/22 08:51:30;;;;;;;24.97;11.33;;;-1.90;94.40;;;;;;4999425;28;20312;-77
2021/12/22 08:53:56;;;;;;;26.73;11.70;;;-1.80;94.50;;;;;;5027933;28;20316;-77
2021/12/22 08:56:22;;;;;;;26.03;11.67;;;-1.70;94.50;;;;;;4991642;28;20072;-76
2021/12/22 08:58:49;;;;;;;28.13;12.20;;;-1.60;94.50;;;;;;5032017;28;20025;-76
2021/12/22 09:01:15;;;;;;;26.73;12.07;;;-1.60;94.50;;;;;;5015758;28;20281;-76
2021/12/22 09:03:40;;;;;;;26.17;11.27;;;-1.50;94.50;;;;;;5009231;28;20761;-75
2021/12/22 09:06:06;;;;;;;25.83;12.57;;;-1.40;94.60;;;;;;5004691;28;20025;-76
2021/12/22 09:08:32;;;;;;;25.27;11.60;;;-1.40;94.60;;;;;;5021592;28;20053;-76
2021/12/22 09:10:58;;;;;;;28.37;12.40;;;-1.30;94.70;;;;;;5009525;28;20100;-76
2021/12/22 09:13:24;;;;;;;25.47;12.33;;;-1.20;94.70;;;;;;5023710;28;20025;-76
2021/12/22 09:15:50;;;;;;;24.93;11.10;;;-1.10;94.70;;;;;;5026965;28;20279;-76
2021/12/22 09:18:17;;;;;;;30.80;12.53;;;-1.00;94.80;;;;;;5032556;28;20524;-75
2021/12/22 09:20:42;;;;;;;26.80;12.33;;;-0.90;94.80;;;;;;5021681;28;20037;-74
2021/12/22 09:23:08;;;;;;;25.47;12.17;;;-0.90;94.80;;;;;;5018058;28;20033;-78
2021/12/22 09:25:34;;;;;;;27.03;11.70;;;-0.80;94.90;;;;;;5008566;28;20156;-76
2021/12/22 09:28:01;;;;;;;29.13;12.37;;;-0.70;94.90;;;;;;5031113;28;20112;-77
2021/12/22 09:30:31;;;;;;;26.07;10.50;;;-0.50;95.00;;;;;;5018757;28;20031;-76
2021/12/22 09:32:57;;;;;;;21.43;10.13;;;-0.50;95.10;;;;;;5002357;28;20128;-77
2021/12/22 09:35:23;;;;;;;21.47;10.17;;;-0.30;95.20;;;;;;5013556;28;20081;-77
2021/12/22 09:37:48;;;;;;;27.13;11.77;;;-0.10;95.20;;;;;;5018589;28;20044;-77
2021/12/22 09:40:14;;;;;;;27.07;10.73;;;0.00;95.30;;;;;;5036398;28;20029;-77
2021/12/22 09:42:40;;;;;;;21.73;10.40;;;0.10;95.60;;;;;;5034559;28;20079;-77
2021/12/22 09:45:06;;;;;;;24.37;11.27;;;0.30;95.40;;;;;;5014485;28;20098;-76
2021/12/22 09:47:47;;;;;;;22.93;9.90;;;0.50;95.60;;;;;;5018546;28;20035;-77
2021/12/22 09:50:13;;;;;;;16.53;9.17;;;0.80;95.80;;;;;;5003512;28;20026;-76
2021/12/22 09:52:39;;;;;;;19.63;8.73;;;1.00;96.00;;;;;;5035198;28;20025;-77
2021/12/22 09:55:07;;;;;;;19.23;8.50;;;1.20;96.10;;;;;;5014447;28;20037;-77
2021/12/22 09:57:34;;;;;;;18.17;9.57;;;1.40;96.10;;;;;;5028086;28;20369;-76
2021/12/22 10:00:00;;;;;;;16.57;8.63;;;1.60;96.30;;;;;;5007997;28;20030;-77
2021/12/22 10:02:29;;;;;;;16.83;8.97;;;1.70;96.20;;;;;;5013003;28;20061;-76
2021/12/22 10:04:59;;;;;;;19.70;8.60;;;1.90;96.20;;;;;;5012566;28;20033;-77
2021/12/22 10:07:28;;;;;;;15.47;8.10;;;2.10;96.30;;;;;;5035093;28;20034;-77
2021/12/22 10:10:05;;;;;;;18.73;8.90;;;2.30;96.30;;;;;;5035008;28;20029;-77
2021/12/22 10:12:30;;;;;;;19.10;8.70;;;2.50;96.30;;;;;;5033597;28;20370;-77
2021/12/22 10:14:58;;;;;;;17.47;9.10;;;2.70;96.00;;;;;;4996602;28;20037;-77
2021/12/22 10:17:39;;;;;;;16.27;9.10;;;2.80;95.70;;;;;;5015623;28;20068;-77
2021/12/22 10:20:11;;;;;;;15.47;7.90;;;2.90;95.60;;;;;;5015345;28;20049;-76
2021/12/22 10:22:43;;;;;;;16.73;8.90;;;3.00;95.40;;;;;;5028778;28;20082;-77
2021/12/22 10:25:16;;;;;;;15.73;7.77;;;3.10;95.30;;;;;;5026839;28;20477;-77
2021/12/22 10:27:45;;;;;;;17.23;7.93;;;3.20;95.10;;;;;;5010170;28;20025;-77
2021/12/22 10:30:24;;;;;;;19.93;9.43;;;3.30;94.80;;;;;;5024959;28;20440;-76
2021/12/22 10:33:22;;;;;;;20.73;8.87;;;3.40;94.50;;;;;;5035058;28;20017;-77
2021/12/22 10:35:54;;;;;;;18.30;8.17;;;3.40;94.20;;;;;;5005892;28;20047;-76
2021/12/22 10:38:22;;;;;;;16.63;8.50;;;3.40;93.90;;;;;;5024601;28;20369;-76
2021/12/22 10:40:51;;;;;;;14.87;8.07;;;3.40;93.70;;;;;;5027539;28;20389;-76
2021/12/22 10:43:25;;;;;;;16.57;7.73;;;3.40;93.60;;;;;;5035167;28;20018;-76
2021/12/22 10:45:52;;;;;;;;;;;3.40;93.50;;;;;;5018068;28;20381;-76
2021/12/22 10:51:11;;;;;;;14.90;7.50;;;3.50;93.30;;;;;;5020134;28;20044;-76
2021/12/22 10:53:45;;;;;;;13.43;7.70;;;3.60;93.20;;;;;;5030834;28;20474;-77
2021/12/22 10:56:23;;;;;;;14.98;7.32;;;3.70;93.30;;;;;;5001919;28;20382;-76
2021/12/22 10:59:06;;;;;;;16.00;8.03;;;4.00;93.30;;;;;;5008394;28;20025;-76
2021/12/22 11:01:37;;;;;;;15.50;8.67;;;4.00;93.20;;;;;;5028776;28;20424;-76
2021/12/22 11:04:14;;;;;;;15.50;8.50;;;4.10;93.10;;;;;;5016545;28;20025;-77
2021/12/22 11:06:40;;;;;;;15.40;8.57;;;4.30;92.80;;;;;;5016628;28;20025;-77
2021/12/22 11:09:10;;;;;;;13.17;7.17;;;4.30;92.50;;;;;;4999768;28;20034;-77
2021/12/22 11:11:38;;;;;;;14.53;7.90;;;4.40;92.40;;;;;;5016980;28;20385;-77
2021/12/22 11:14:33;;;;;;;14.43;7.67;;;4.40;92.10;;;;;;5016368;28;20029;-76
2021/12/22 11:17:03;;;;;;;;;;;4.50;91.90;;;;;;5029850;28;20030;-77
2021/12/22 11:19:35;;;;;;;15.60;7.60;;;4.60;91.80;;;;;;5023300;28;19967;-77
2021/12/22 11:22:14;;;;;;;15.17;7.03;;;4.70;91.70;;;;;;5032625;28;20116;-77
2021/12/22 11:24:44;;;;;;;13.33;7.67;;;4.70;91.60;;;;;;4995331;28;20041;-76
2021/12/22 11:27:12;;;;;;;14.23;7.20;;;4.80;91.40;;;;;;5033884;28;20040;-76
2021/12/22 11:29:44;;;;;;;16.63;7.00;;;4.90;91.30;;;;;;5033680;28;20060;-76
2021/12/22 11:32:13;;;;;;;12.83;7.63;;;5.00;91.10;;;;;;5033440;28;20458;-76
2021/12/22 11:34:40;;;;;;;13.67;7.20;;;5.10;90.90;;;;;;5033687;28;20488;-77
2021/12/22 11:37:09;;;;;;;12.87;7.73;;;5.10;90.70;;;;;;5033835;28;20108;-76
2021/12/22 11:39:34;;;;;;;14.97;8.10;;;5.20;90.60;;;;;;5021322;28;20029;-75
2021/12/22 11:42:03;;;;;;;16.17;8.50;;;5.20;90.30;;;;;;5023063;28;20984;-75
2021/12/22 11:44:31;;;;;;;16.47;7.87;;;5.40;90.30;;;;;;5024219;28;20042;-75
2021/12/22 11:47:00;;;;;;;16.60;8.30;;;5.60;90.20;;;;;;5013605;28;20509;-76
2021/12/22 11:49:28;;;;;;;14.43;8.13;;;5.80;90.20;;;;;;5016505;28;20099;-76
2021/12/22 11:51:54;;;;;;;16.17;8.17;;;6.00;90.10;;;;;;5028716;28;20030;-75
2021/12/22 11:54:27;;;;;;;12.80;6.67;;;6.20;89.70;;;;;;4992997;28;20032;-75
2021/12/22 11:56:58;;;;;;;12.90;7.77;;;6.50;89.20;;;;;;5020087;28;20026;-75
2021/12/22 11:59:31;;;;;;;15.07;7.67;;;6.70;89.00;;;;;;5032979;28;20053;-76
2021/12/22 12:02:23;;;;;;;14.37;7.60;;;7.00;88.90;;;;;;5031237;28;20025;-76
2021/12/22 12:05:12;;;;;;;13.23;7.47;;;7.40;88.30;;;;;;5008814;28;20457;-76
2021/12/22 12:07:51;;;;;;;15.57;7.13;;;7.80;88.40;;;;;;5016005;28;20128;-76
2021/12/22 12:10:40;;;;;;;13.05;7.13;;;8.20;87.80;;;;;;5029905;28;20025;-77
2021/12/22 12:22:25;;;;;;;13.32;6.72;;;10.50;83.20;;;;;;5019555;28;20090;-77
2021/12/22 12:24:54;;;;;;;11.07;6.72;;;11.10;81.90;;;;;;4995864;28;20026;-77
2021/12/22 12:27:38;;;;;;;12.95;7.00;;;11.30;79.00;;;;;;5011183;28;20405;-78
2021/12/22 12:30:21;;;;;;;10.93;6.25;;;11.50;75.60;;;;;;4997012;28;20032;-77
2021/12/22 12:32:50;;;;;;;12.07;7.07;;;11.70;74.10;;;;;;5031036;28;20030;-77
2021/12/22 12:35:23;;;;;;;11.15;6.72;;;11.80;73.40;;;;;;5006793;28;20482;-77
2021/12/22 12:38:01;;;;;;;10.98;6.32;;;11.80;71.60;;;;;;5030356;28;20025;-77
2021/12/22 12:41:11;;;;;;;15.68;7.15;;;11.80;70.10;;;;;;5021630;28;20022;-76
2021/12/22 12:43:47;;;;;;;11.43;6.18;;;11.90;68.70;;;;;;4987644;28;20034;-77
2021/12/22 12:46:19;;;;;;;13.20;5.95;;;11.90;68.60;;;;;;5014906;28;20738;-78
2021/12/22 12:49:15;;;;;;;12.77;5.95;;;11.90;67.40;;;;;;5023839;28;20061;-78
2021/12/22 12:51:47;;;;;;;10.50;5.95;;;11.80;66.00;;;;;;5030670;28;20044;-78
2021/12/22 12:54:20;;;;;;;13.05;5.90;;;11.40;64.30;;;;;;5025839;28;20017;-78
2021/12/22 12:56:59;;;;;;;10.43;6.20;;;11.00;63.90;;;;;;5015100;28;20485;-78
2021/12/22 13:00:03;;;;;;;10.48;6.05;;;10.70;63.70;;;;;;5009100;28;20037;-78
2021/12/22 13:02:31;;;;;;;13.45;6.38;;;10.60;64.50;;;;;;5028190;28;20124;-78
2021/12/22 13:05:13;;;;;;;11.02;6.45;;;10.70;65.20;;;;;;4987805;28;20030;-78